createdAt,value
2023-01-29T00:00:16.274Z,101374.20
2023-01-29T00:03:07.021Z,101365.60
2023-01-29T00:05:37.225Z,101354.00
2023-01-29T00:08:12.288Z,101350.60
2023-01-29T00:10:39.948Z,101340.20
2023-01-29T00:13:08.972Z,101333.80
2023-01-29T00:15:37.154Z,101333.80
2023-01-29T00:18:06.268Z,101337.60
2023-01-29T00:20:36.196Z,101335.20
2023-01-29T00:23:03.924Z,101327.20
2023-01-29T00:25:31.729Z,101322.80
2023-01-29T00:27:59.493Z,101316.60
2023-01-29T00:30:27.339Z,101313.20
2023-01-29T00:32:55.034Z,101299.20
2023-01-29T00:35:25.251Z,101305.00
2023-01-29T00:37:55.009Z,101301.20
2023-01-29T00:40:23.448Z,101304.80
2023-01-29T00:43:11.474Z,101299.60
2023-01-29T00:45:40.831Z,101307.20
2023-01-29T00:48:10.234Z,101298.40
2023-01-29T00:50:38.054Z,101294.00
2023-01-29T00:53:06.107Z,101290.40
2023-01-29T00:55:34.376Z,101284.40
2023-01-29T00:58:02.177Z,101276.80
2023-01-29T01:00:30.177Z,101270.80
2023-01-29T01:03:07.914Z,101269.80
2023-01-29T01:05:39.271Z,101256.60
2023-01-29T01:08:27.387Z,101246.40
2023-01-29T01:11:05.307Z,101244.40
2023-01-29T01:13:34.469Z,101237.20
2023-01-29T01:16:02.268Z,101231.20
2023-01-29T01:18:32.421Z,101245.60
2023-01-29T01:21:01.992Z,101243.40
2023-01-29T01:23:29.773Z,101241.80
2023-01-29T01:25:59.287Z,101235.80
2023-01-29T01:28:29.071Z,101238.80
2023-01-29T01:30:56.898Z,101229.60
2023-01-29T01:33:24.866Z,101222.20
2023-01-29T01:35:53.091Z,101215.80
2023-01-29T01:38:20.812Z,101210.60
2023-01-29T01:40:49.119Z,101193.80
2023-01-29T01:43:16.912Z,101186.00
2023-01-29T01:45:46.767Z,101186.80
2023-01-29T01:48:27.296Z,101191.40
2023-01-29T01:51:06.550Z,101192.40
2023-01-29T01:53:42.224Z,101173.40
2023-01-29T01:56:16.731Z,101175.20
2023-01-29T01:58:53.788Z,101166.40
2023-01-29T02:01:28.147Z,101156.20
2023-01-29T02:04:26.699Z,101153.60
2023-01-29T02:07:16.799Z,101159.20
2023-01-29T02:09:54.015Z,101163.60
2023-01-29T02:12:23.254Z,101174.00
2023-01-29T02:14:52.561Z,101189.00
2023-01-29T02:17:20.776Z,101184.40
2023-01-29T02:20:24.495Z,101184.40
2023-01-29T02:23:01.103Z,101194.20
2023-01-29T02:26:22.316Z,101183.40
2023-01-29T02:29:30.628Z,101184.20
2023-01-29T02:32:21.829Z,101187.60
2023-01-29T02:35:23.224Z,101188.20
2023-01-29T02:38:18.208Z,101182.00
2023-01-29T02:40:55.565Z,101156.80
2023-01-29T02:43:38.684Z,101149.00
2023-01-29T02:46:16.159Z,101146.60
2023-01-29T02:49:02.010Z,101150.60
2023-01-29T02:51:38.210Z,101143.40
2023-01-29T02:54:24.968Z,101139.60
2023-01-29T02:57:02.541Z,101142.80
2023-01-29T03:00:07.661Z,101141.20
2023-01-29T03:02:57.391Z,101123.40
2023-01-29T03:05:45.252Z,101124.80
2023-01-29T03:08:37.228Z,101126.00
2023-01-29T03:11:07.704Z,101116.60
2023-01-29T03:13:40.006Z,101108.40
2023-01-29T03:16:33.338Z,101105.60
2023-01-29T03:19:19.044Z,101098.20
2023-01-29T03:21:59.622Z,101095.80
2023-01-29T03:25:14.425Z,101093.20
2023-01-29T03:28:11.878Z,101079.00
2023-01-29T03:31:10.677Z,101059.80
2023-01-29T03:33:50.749Z,101043.80
2023-01-29T03:36:39.925Z,101031.80
2023-01-29T03:39:11.566Z,101023.40
2023-01-29T03:42:21.776Z,101022.80
2023-01-29T03:45:42.929Z,101004.40
2023-01-29T03:48:56.060Z,101013.00
2023-01-29T03:52:04.347Z,100999.80
2023-01-29T03:54:58.219Z,101001.20
2023-01-29T03:57:56.048Z,100995.60
2023-01-29T04:00:32.423Z,100992.60
2023-01-29T04:03:08.160Z,100980.80
2023-01-29T04:05:49.787Z,100980.00
2023-01-29T04:08:28.535Z,100973.40
2023-01-29T04:11:06.054Z,100966.80
2023-01-29T04:13:36.904Z,100949.40
2023-01-29T04:16:10.785Z,100950.40
2023-01-29T04:18:39.695Z,100941.40
2023-01-29T04:21:07.732Z,100922.40
2023-01-29T04:23:36.584Z,100926.60
2023-01-29T04:26:27.722Z,100935.60
2023-01-29T04:29:38.187Z,100929.40
2023-01-29T04:32:31.145Z,100945.60
2023-01-29T04:35:12.992Z,100937.20
2023-01-29T04:38:11.563Z,100919.80
2023-01-29T04:41:03.500Z,100914.80
2023-01-29T04:44:11.587Z,100911.80
2023-01-29T04:47:20.140Z,100898.80
2023-01-29T04:50:26.998Z,100889.20
2023-01-29T04:53:14.941Z,100885.40
2023-01-29T04:55:47.297Z,100876.20
2023-01-29T04:58:36.590Z,100867.60
2023-01-29T05:01:11.107Z,100889.40
2023-01-29T05:03:43.610Z,100883.60
2023-01-29T05:06:13.277Z,100877.00
2023-01-29T05:08:42.338Z,100867.20
2023-01-29T05:11:11.511Z,100863.60
2023-01-29T05:13:42.560Z,100863.20
2023-01-29T05:16:21.486Z,100856.00
2023-01-29T05:18:49.998Z,100839.80
2023-01-29T05:21:19.177Z,100812.20
2023-01-29T05:23:59.403Z,100810.60
2023-01-29T05:26:46.540Z,100813.00
2023-01-29T05:29:14.266Z,100806.60
2023-01-29T05:31:45.801Z,100803.40
2023-01-29T05:34:13.701Z,100793.60
2023-01-29T05:36:41.812Z,100785.40
2023-01-29T05:39:09.629Z,100782.00
2023-01-29T05:41:38.723Z,100769.80
2023-01-29T05:44:06.583Z,100766.80
2023-01-29T05:46:34.426Z,100758.40
2023-01-29T05:49:02.282Z,100739.80
2023-01-29T05:51:30.128Z,100729.00
2023-01-29T05:53:57.800Z,100710.80
2023-01-29T05:56:29.311Z,100712.00
2023-01-29T05:58:57.104Z,100702.00
2023-01-29T06:01:26.328Z,100699.40
2023-01-29T06:03:54.229Z,100684.80
2023-01-29T06:06:22.413Z,100678.80
2023-01-29T06:08:50.438Z,100658.60
2023-01-29T06:11:18.669Z,100667.20
2023-01-29T06:13:46.596Z,100661.20
2023-01-29T06:16:17.119Z,100656.20
2023-01-29T06:18:44.919Z,100658.60
2023-01-29T06:21:15.199Z,100653.60
2023-01-29T06:23:43.011Z,100644.60
2023-01-29T06:26:14.611Z,100652.00
2023-01-29T06:28:43.861Z,100640.40
2023-01-29T06:31:27.486Z,100634.40
2023-01-29T06:33:59.984Z,100635.00
2023-01-29T06:36:32.285Z,100627.20
2023-01-29T06:39:00.166Z,100634.60
2023-01-29T06:41:28.787Z,100619.40
2023-01-29T06:43:56.667Z,100618.00
2023-01-29T06:46:24.627Z,100618.20
2023-01-29T06:48:53.097Z,100605.40
2023-01-29T06:51:23.010Z,100587.60
2023-01-29T06:53:50.898Z,100602.20
2023-01-29T06:56:18.626Z,100598.00
2023-01-29T06:58:47.596Z,100594.20
2023-01-29T07:01:34.278Z,100598.80
2023-01-29T07:04:04.207Z,100577.00
2023-01-29T07:06:33.093Z,100570.80
2023-01-29T07:09:01.014Z,100569.00
2023-01-29T07:11:28.867Z,100569.60
2023-01-29T07:13:56.852Z,100562.20
2023-01-29T07:16:26.350Z,100553.80
2023-01-29T07:18:54.803Z,100564.80
2023-01-29T07:21:24.875Z,100551.40
2023-01-29T07:23:52.591Z,100554.20
2023-01-29T07:26:20.461Z,100566.80
2023-01-29T07:28:48.228Z,100574.80
2023-01-29T07:31:16.465Z,100574.60
2023-01-29T07:33:46.401Z,100554.00
2023-01-29T07:36:16.176Z,100549.60
2023-01-29T07:38:43.981Z,100540.00
2023-01-29T07:41:12.805Z,100547.80
2023-01-29T07:43:40.588Z,100544.60
2023-01-29T07:46:08.925Z,100551.80
2023-01-29T07:48:37.621Z,100561.40
2023-01-29T07:51:06.264Z,100543.60
2023-01-29T07:53:34.264Z,100538.80
2023-01-29T07:56:02.752Z,100518.00
2023-01-29T07:58:30.761Z,100517.00
2023-01-29T08:00:59.083Z,100497.20
2023-01-29T08:03:26.794Z,100509.00
2023-01-29T08:05:54.539Z,100511.00
2023-01-29T08:08:23.423Z,100506.00
2023-01-29T08:10:51.927Z,100501.60
2023-01-29T08:13:19.702Z,100500.20
2023-01-29T08:15:50.188Z,100487.20
2023-01-29T08:18:18.019Z,100492.80
2023-01-29T08:20:45.762Z,100500.20
2023-01-29T08:23:17.071Z,100506.40
2023-01-29T08:25:45.197Z,100493.00
2023-01-29T08:28:13.152Z,100501.60
2023-01-29T08:30:41.154Z,100497.80
2023-01-29T08:33:10.424Z,100500.80
2023-01-29T08:35:41.307Z,100492.00
2023-01-29T08:38:09.950Z,100496.80
2023-01-29T08:40:37.739Z,100491.60
2023-01-29T08:43:09.471Z,100486.40
2023-01-29T08:45:42.577Z,100476.40
2023-01-29T08:48:13.063Z,100472.80
2023-01-29T08:50:41.120Z,100464.00
2023-01-29T08:53:10.148Z,100450.20
2023-01-29T08:55:41.385Z,100453.40
2023-01-29T08:58:11.782Z,100450.20
2023-01-29T09:00:39.900Z,100444.80
2023-01-29T09:03:08.249Z,100440.80
2023-01-29T09:05:38.250Z,100423.60
2023-01-29T09:08:08.945Z,100426.40
2023-01-29T09:10:36.859Z,100424.60
2023-01-29T09:13:04.744Z,100432.80
2023-01-29T09:15:32.817Z,100426.80
2023-01-29T09:18:05.413Z,100423.20
2023-01-29T09:20:34.049Z,100413.00
2023-01-29T09:23:11.500Z,100405.40
2023-01-29T09:25:40.285Z,100400.60
2023-01-29T09:28:08.125Z,100393.60
2023-01-29T09:30:37.975Z,100380.00
2023-01-29T09:33:07.499Z,100378.20
2023-01-29T09:35:35.490Z,100375.40
2023-01-29T09:38:03.404Z,100363.40
2023-01-29T09:40:40.230Z,100368.60
2023-01-29T09:43:23.306Z,100363.80
2023-01-29T09:46:05.802Z,100354.40
2023-01-29T09:48:36.859Z,100358.00
2023-01-29T09:51:19.554Z,100354.40
2023-01-29T09:54:10.908Z,100351.80
2023-01-29T09:56:39.191Z,100342.80
2023-01-29T09:59:14.467Z,100329.00
2023-01-29T10:01:55.606Z,100330.20
2023-01-29T10:04:42.380Z,100320.40
2023-01-29T10:07:45.329Z,100306.20
2023-01-29T10:10:31.712Z,100291.60
2023-01-29T10:13:21.243Z,100290.20
2023-01-29T10:16:53.112Z,100267.80
2023-01-29T10:19:56.365Z,100261.00
2023-01-29T10:22:54.430Z,100264.40
2023-01-29T10:25:25.059Z,100249.80
2023-01-29T10:27:59.859Z,100244.60
2023-01-29T10:30:41.800Z,100232.40
2023-01-29T10:33:49.514Z,100211.00
2023-01-29T10:36:33.068Z,100201.60
2023-01-29T10:39:00.900Z,100191.00
2023-01-29T10:42:12.094Z,100183.60
2023-01-29T10:45:17.972Z,100175.20
2023-01-29T10:48:49.861Z,100171.60
2023-01-29T10:52:00.285Z,100152.80
2023-01-29T10:55:04.145Z,100133.60
2023-01-29T10:58:04.967Z,100131.00
2023-01-29T11:00:41.392Z,100112.80
2023-01-29T11:03:27.955Z,100112.20
2023-01-29T11:06:27.346Z,100107.80
2023-01-29T11:09:35.231Z,100101.00
2023-01-29T11:12:13.364Z,100111.60
2023-01-29T11:15:07.065Z,100111.20
2023-01-29T11:17:36.651Z,100098.40
2023-01-29T11:20:25.152Z,100099.80
2023-01-29T11:22:55.830Z,100089.20
2023-01-29T11:25:24.801Z,100073.80
2023-01-29T11:28:00.977Z,100060.40
2023-01-29T11:30:34.115Z,100054.40
2023-01-29T11:33:26.430Z,100048.60
2023-01-29T11:35:56.115Z,100036.20
2023-01-29T11:38:31.948Z,100022.20
2023-01-29T11:41:19.959Z,100012.00
2023-01-29T11:43:47.740Z,100000.60
2023-01-29T11:46:17.216Z,99998.60
2023-01-29T11:48:58.960Z,99993.80
2023-01-29T11:51:37.542Z,99977.00
2023-01-29T11:54:06.569Z,99980.80
2023-01-29T11:56:42.968Z,99978.80
2023-01-29T11:59:44.660Z,99990.20
2023-01-29T12:02:31.674Z,99985.20
2023-01-29T12:05:19.642Z,99981.40
2023-01-29T12:07:51.615Z,99971.20
2023-01-29T12:10:41.142Z,99966.80
2023-01-29T12:13:27.132Z,99964.20
2023-01-29T12:16:40.529Z,99952.00
2023-01-29T12:19:36.704Z,99940.20
2023-01-29T12:22:58.317Z,99934.20
2023-01-29T12:25:35.248Z,99908.80
2023-01-29T12:28:57.599Z,99899.60
2023-01-29T12:31:56.319Z,99879.60
2023-01-29T12:34:48.359Z,99856.00
2023-01-29T12:37:42.292Z,99848.80
2023-01-29T12:40:17.588Z,99839.20
2023-01-29T12:42:56.614Z,99826.40
2023-01-29T12:45:29.486Z,99810.80
2023-01-29T12:48:05.616Z,99798.80
2023-01-29T12:50:37.021Z,99790.40
2023-01-29T12:53:34.165Z,99786.60
2023-01-29T12:56:18.510Z,99769.60
2023-01-29T12:58:52.837Z,99748.20
2023-01-29T13:01:36.927Z,99738.00
2023-01-29T13:04:37.063Z,99739.80
2023-01-29T13:07:19.394Z,99739.20
2023-01-29T13:09:58.169Z,99741.60
2023-01-29T13:12:27.393Z,99741.40
2023-01-29T13:15:01.439Z,99734.20
2023-01-29T13:17:51.183Z,99706.40
2023-01-29T13:20:31.744Z,99707.20
2023-01-29T13:23:44.447Z,99698.40
2023-01-29T13:26:20.288Z,99696.00
2023-01-29T13:28:49.618Z,99702.80
2023-01-29T13:31:37.842Z,99691.20
2023-01-29T13:34:19.552Z,99688.40
2023-01-29T13:36:52.720Z,99683.80
2023-01-29T13:39:37.971Z,99678.80
2023-01-29T13:42:20.147Z,99676.40
2023-01-29T13:44:56.634Z,99669.00
2023-01-29T13:47:29.331Z,99661.80
2023-01-29T13:50:49.821Z,99653.60
2023-01-29T13:53:27.353Z,99650.40
2023-01-29T13:55:55.253Z,99629.00
2023-01-29T13:58:31.798Z,99623.00
2023-01-29T14:01:01.785Z,99602.40
2023-01-29T14:03:35.907Z,99593.40
2023-01-29T14:06:42.282Z,99599.60
2023-01-29T14:09:35.020Z,99569.60
2023-01-29T14:12:25.066Z,99574.20
2023-01-29T14:14:54.817Z,99540.80
2023-01-29T14:17:27.027Z,99524.20
2023-01-29T14:20:19.693Z,99526.40
2023-01-29T14:22:57.755Z,99509.20
2023-01-29T14:25:35.160Z,99511.00
2023-01-29T14:28:14.316Z,99496.60
2023-01-29T14:30:49.260Z,99490.20
2023-01-29T14:33:32.333Z,99491.60
2023-01-29T14:36:09.267Z,99487.20
2023-01-29T14:38:47.425Z,99469.20
2023-01-29T14:41:30.451Z,99462.20
2023-01-29T14:44:59.133Z,99431.20
2023-01-29T14:47:27.009Z,99448.40
2023-01-29T14:49:59.670Z,99440.80
2023-01-29T14:52:41.570Z,99426.20
2023-01-29T14:55:31.223Z,99420.40
2023-01-29T14:57:59.632Z,99410.20
2023-01-29T15:00:32.955Z,99413.40
2023-01-29T15:03:12.760Z,99404.40
2023-01-29T15:05:42.528Z,99375.20
2023-01-29T15:08:30.122Z,99367.80
2023-01-29T15:11:27.500Z,99355.60
2023-01-29T15:14:40.949Z,99333.20
2023-01-29T15:17:09.427Z,99309.00
2023-01-29T15:19:45.876Z,99302.20
2023-01-29T15:22:20.021Z,99294.00
2023-01-29T15:25:22.450Z,99294.60
2023-01-29T15:27:51.135Z,99291.40
2023-01-29T15:30:29.703Z,99295.00
2023-01-29T15:33:05.635Z,99289.00
2023-01-29T15:35:43.416Z,99262.80
2023-01-29T15:38:23.324Z,99253.80
2023-01-29T15:41:17.411Z,99263.80
2023-01-29T15:43:58.548Z,99255.40
2023-01-29T15:46:36.523Z,99264.00
2023-01-29T15:49:11.849Z,99262.00
2023-01-29T15:51:39.807Z,99286.40
2023-01-29T15:54:15.967Z,99282.80
2023-01-29T15:56:52.743Z,99261.60
2023-01-29T15:59:35.897Z,99239.80
2023-01-29T16:02:39.582Z,99226.40
2023-01-29T16:05:40.912Z,99223.40
2023-01-29T16:08:16.391Z,99219.80
2023-01-29T16:10:48.286Z,99205.80
2023-01-29T16:13:31.096Z,99205.40
2023-01-29T16:16:31.019Z,99203.40
2023-01-29T16:19:01.390Z,99186.20
2023-01-29T16:21:40.004Z,99183.40
2023-01-29T16:24:22.707Z,99173.80
2023-01-29T16:27:04.787Z,99156.80
2023-01-29T16:29:35.457Z,99146.00
2023-01-29T16:32:05.783Z,99130.20
2023-01-29T16:34:43.156Z,99113.00
2023-01-29T16:37:40.498Z,99141.60
2023-01-29T16:40:33.408Z,99151.80
2023-01-29T16:43:46.828Z,99142.00
2023-01-29T16:46:31.914Z,99142.80
2023-01-29T16:49:01.122Z,99136.60
2023-01-29T16:51:36.985Z,99132.40
2023-01-29T16:54:26.814Z,99133.80
2023-01-29T16:57:00.235Z,99122.40
2023-01-29T16:59:38.407Z,99110.20
2023-01-29T17:02:37.100Z,99107.00
2023-01-29T17:05:21.808Z,99101.40
2023-01-29T17:07:50.726Z,99100.00
2023-01-29T17:10:23.280Z,99094.80
2023-01-29T17:13:05.449Z,99095.00
2023-01-29T17:15:47.487Z,99094.80
2023-01-29T17:18:25.783Z,99077.80
2023-01-29T17:20:56.112Z,99081.00
2023-01-29T17:23:27.767Z,99069.60
2023-01-29T17:25:55.763Z,99051.20
2023-01-29T17:28:23.808Z,99059.40
2023-01-29T17:31:05.312Z,99015.00
2023-01-29T17:33:38.342Z,99016.80
2023-01-29T17:36:12.488Z,99009.80
2023-01-29T17:38:42.544Z,98986.40
2023-01-29T17:41:32.901Z,98988.00
2023-01-29T17:44:00.934Z,98958.00
2023-01-29T17:46:29.140Z,98966.40
2023-01-29T17:48:58.629Z,98953.20
2023-01-29T17:51:32.064Z,98934.80
2023-01-29T17:54:02.083Z,98933.40
2023-01-29T17:56:31.466Z,98920.60
2023-01-29T17:58:59.732Z,98904.00
2023-01-29T18:01:30.219Z,98905.40
2023-01-29T18:04:04.197Z,98903.20
2023-01-29T18:06:36.520Z,98900.60
2023-01-29T18:11:54.750Z,98876.00
2023-01-29T18:14:23.688Z,98878.00
2023-01-29T18:16:52.520Z,98866.60
2023-01-29T18:19:31.600Z,98857.80
2023-01-29T18:22:02.440Z,98864.20
2023-01-29T18:24:34.219Z,98853.00
2023-01-29T18:27:04.857Z,98820.20
2023-01-29T18:29:32.815Z,98814.40
2023-01-29T18:32:01.304Z,98790.80
2023-01-29T18:34:29.345Z,98780.40
2023-01-29T18:36:57.761Z,98784.20
2023-01-29T18:39:26.587Z,98768.00
2023-01-29T18:41:54.825Z,98749.40
2023-01-29T18:44:22.667Z,98760.00
2023-01-29T18:46:53.113Z,98768.00
2023-01-29T18:49:21.411Z,98765.00
2023-01-29T18:51:49.201Z,98768.00
2023-01-29T18:54:18.736Z,98780.20
2023-01-29T18:57:08.689Z,98763.80
2023-01-29T18:59:34.861Z,98747.40
2023-01-29T19:02:05.172Z,98708.20
2023-01-29T19:04:34.309Z,98701.40
2023-01-29T19:07:02.119Z,98687.40
2023-01-29T19:09:37.238Z,98683.20
2023-01-29T19:12:06.021Z,98700.20
2023-01-29T19:14:36.351Z,98708.60
2023-01-29T19:17:05.083Z,98685.00
2023-01-29T19:19:34.113Z,98679.60
2023-01-29T19:22:02.441Z,98672.20
2023-01-29T19:24:36.438Z,98662.80
2023-01-29T19:27:07.885Z,98666.80
2023-01-29T19:29:37.466Z,98659.80
2023-01-29T19:32:06.332Z,98651.00
2023-01-29T19:34:35.370Z,98635.60
2023-01-29T19:37:05.349Z,98644.40
2023-01-29T19:39:34.071Z,98641.60
2023-01-29T19:42:02.465Z,98631.20
2023-01-29T19:44:31.351Z,98631.80
2023-01-29T19:47:03.371Z,98625.20
2023-01-29T19:49:31.471Z,98611.20
2023-01-29T19:52:01.131Z,98616.00
2023-01-29T19:54:29.701Z,98616.80
2023-01-29T19:57:00.125Z,98605.00
2023-01-29T19:59:27.955Z,98616.40
2023-01-29T20:01:56.073Z,98608.00
2023-01-29T20:04:24.954Z,98612.60
2023-01-29T20:06:52.680Z,98617.60
2023-01-29T20:09:21.545Z,98599.80
2023-01-29T20:11:49.339Z,98605.60
2023-01-29T20:14:19.642Z,98605.40
2023-01-29T20:16:49.863Z,98602.80
2023-01-29T20:19:20.030Z,98601.20
2023-01-29T20:21:52.197Z,98616.60
2023-01-29T20:24:20.318Z,98615.40
2023-01-29T20:26:50.636Z,98619.40
2023-01-29T20:29:18.619Z,98633.00
2023-01-29T20:31:46.714Z,98631.60
2023-01-29T20:34:15.108Z,98611.00
2023-01-29T20:36:44.143Z,98599.00
2023-01-29T20:39:12.025Z,98609.40
2023-01-29T20:41:42.116Z,98599.40
2023-01-29T20:44:10.795Z,98594.60
2023-01-29T20:46:39.648Z,98602.00
2023-01-29T20:49:07.636Z,98606.20
2023-01-29T20:51:37.077Z,98607.80
2023-01-29T20:54:07.607Z,98605.00
2023-01-29T20:56:36.947Z,98599.40
2023-01-29T20:59:09.288Z,98598.20
2023-01-29T21:01:37.222Z,98602.60
2023-01-29T21:04:05.079Z,98613.60
2023-01-29T21:06:34.789Z,98621.20
2023-01-29T21:09:03.740Z,98630.20
2023-01-29T21:11:33.772Z,98635.60
2023-01-29T21:14:05.791Z,98642.20
2023-01-29T21:16:39.114Z,98649.20
2023-01-29T21:19:15.263Z,98664.00
2023-01-29T21:21:44.106Z,98657.00
2023-01-29T21:24:13.112Z,98663.80
2023-01-29T21:26:41.312Z,98663.80
2023-01-29T21:29:12.908Z,98655.80
2023-01-29T21:31:42.384Z,98665.80
2023-01-29T21:34:11.252Z,98677.00
2023-01-29T21:36:41.397Z,98676.60
2023-01-29T21:39:16.836Z,98678.60
2023-01-29T21:42:08.923Z,98678.40
2023-01-29T21:44:37.931Z,98683.60
2023-01-29T21:47:12.476Z,98688.20
2023-01-29T21:49:51.867Z,98686.60
2023-01-29T21:52:19.619Z,98678.40
2023-01-29T21:54:49.807Z,98690.40
2023-01-29T21:57:18.031Z,98685.40
2023-01-29T21:59:54.409Z,98686.20
2023-01-29T22:02:26.558Z,98687.80
2023-01-29T22:05:05.310Z,98694.20
2023-01-29T22:07:44.410Z,98707.80
2023-01-29T22:10:12.872Z,98712.40
2023-01-29T22:12:41.238Z,98717.40
2023-01-29T22:15:11.250Z,98719.40
2023-01-29T22:17:41.503Z,98729.20
2023-01-29T22:20:16.566Z,98731.80
2023-01-29T22:22:46.414Z,98734.40
2023-01-29T22:25:20.092Z,98725.60
2023-01-29T22:27:48.261Z,98728.40
2023-01-29T22:30:16.852Z,98731.80
2023-01-29T22:32:45.441Z,98728.80
2023-01-29T22:35:13.436Z,98740.80
2023-01-29T22:37:43.181Z,98736.20
2023-01-29T22:40:14.428Z,98720.80
2023-01-29T22:42:45.642Z,98711.80
2023-01-29T22:45:13.734Z,98703.00
2023-01-29T22:47:44.818Z,98707.60
2023-01-29T22:50:13.378Z,98694.80
2023-01-29T22:52:43.689Z,98707.80
2023-01-29T22:55:13.274Z,98707.00
2023-01-29T22:57:40.976Z,98721.60
2023-01-29T23:00:11.334Z,98710.40
2023-01-29T23:02:41.286Z,98711.60
2023-01-29T23:05:09.468Z,98713.60
2023-01-29T23:07:38.566Z,98714.40
2023-01-29T23:10:08.056Z,98723.00
2023-01-29T23:12:37.820Z,98728.20
2023-01-29T23:15:07.646Z,98728.20
2023-01-29T23:17:36.989Z,98722.80
2023-01-29T23:20:06.658Z,98718.20
2023-01-29T23:22:34.855Z,98712.60
2023-01-29T23:25:04.863Z,98702.60
2023-01-29T23:27:32.624Z,98699.40
2023-01-29T23:30:03.952Z,98707.40
2023-01-29T23:32:35.586Z,98706.00
2023-01-29T23:35:07.553Z,98714.00
2023-01-29T23:37:37.195Z,98713.00
2023-01-29T23:40:07.768Z,98715.60
2023-01-29T23:42:37.912Z,98701.80
2023-01-29T23:45:07.069Z,98694.20
2023-01-29T23:47:36.866Z,98684.40
2023-01-29T23:50:05.129Z,98683.60
2023-01-29T23:52:34.664Z,98685.60
2023-01-29T23:55:02.934Z,98688.40
2023-01-29T23:57:36.032Z,98696.20
